Time;durP1;ratioP1;P1;durP2;ratioP2;P2;SDS_P1;SDS_P2;PMS_P1;PMS_P2;Temp;Humidity;BMP_temperature;BMP_pressure;BME280_temperature;BME280_humidity;BME280_pressure;Samples;Min_cycle;Max_cycle;Signal;HPM_P1;HPM_P2
2024/02/24 00:06:13;;;;;;;9.32;5.38;;;4.90;99.90;;;;;;20708319;28;20129;-40
2024/02/24 00:16:14;;;;;;;9.35;5.13;;;4.90;99.90;;;;;;20721111;28;20045;-40
2024/02/24 00:26:14;;;;;;;7.28;4.70;;;4.90;99.90;;;;;;20722531;28;20077;-39
2024/02/24 00:36:15;;;;;;;7.53;4.20;;;4.80;99.90;;;;;;20718441;28;20049;-40
2024/02/24 00:46:15;;;;;;;4.88;2.72;;;4.80;99.90;;;;;;20720048;28;20056;-40
2024/02/24 00:56:16;;;;;;;5.30;2.58;;;4.80;99.90;;;;;;20706907;28;20055;-40
2024/02/24 01:06:17;;;;;;;4.18;1.88;;;4.80;99.90;;;;;;20714745;28;20514;-40
2024/02/24 01:16:17;;;;;;;3.80;1.80;;;4.80;99.90;;;;;;20716638;28;20040;-40
2024/02/24 01:26:18;;;;;;;6.13;2.10;;;4.80;99.90;;;;;;20717105;28;20062;-40
2024/02/24 01:36:18;;;;;;;4.03;1.90;;;4.80;99.90;;;;;;20716064;28;20033;-40
2024/02/24 01:46:19;;;;;;;5.78;2.10;;;4.70;99.90;;;;;;20714818;28;20104;-40
2024/02/24 01:56:21;;;;;;;5.63;2.38;;;4.70;99.90;;;;;;20714489;28;20401;-39
2024/02/24 02:06:24;;;;;;;7.50;2.13;;;4.70;99.90;;;;;;20713414;28;20072;-40
2024/02/24 02:16:25;;;;;;;4.60;2.47;;;4.70;99.90;;;;;;20712928;28;20117;-39
2024/02/24 02:26:25;;;;;;;6.30;2.13;;;4.70;99.90;;;;;;20713678;28;20042;-39
2024/02/24 02:36:26;;;;;;;5.00;2.47;;;4.60;99.90;;;;;;20712358;28;20056;-40
2024/02/24 02:46:27;;;;;;;5.32;2.50;;;4.60;99.90;;;;;;20712410;28;20461;-39
2024/02/24 02:56:27;;;;;;;5.40;2.72;;;4.70;99.90;;;;;;20708560;28;20806;-39
2024/02/24 03:06:31;;;;;;;6.25;2.63;;;4.70;99.90;;;;;;20709266;28;20048;-39
2024/02/24 03:16:32;;;;;;;5.05;2.83;;;4.70;99.90;;;;;;20709732;28;20068;-39
2024/02/24 03:26:33;;;;;;;6.57;3.10;;;4.70;99.90;;;;;;20715993;28;20129;-39
2024/02/24 03:36:34;;;;;;;6.45;3.30;;;4.70;99.90;;;;;;20726845;28;20508;-39
2024/02/24 03:46:34;;;;;;;8.00;3.47;;;4.60;99.90;;;;;;20724279;28;20052;-39
2024/02/24 03:56:38;;;;;;;6.00;3.60;;;4.60;99.90;;;;;;20724117;28;20223;-39
2024/02/24 04:06:38;;;;;;;7.75;3.53;;;4.40;99.90;;;;;;20723370;28;20073;-39
2024/02/24 04:16:39;;;;;;;6.03;3.25;;;4.40;99.90;;;;;;20722355;28;20041;-39
2024/02/24 04:26:40;;;;;;;7.82;3.47;;;4.40;99.90;;;;;;20725027;28;20049;-39
2024/02/24 04:36:42;;;;;;;7.05;3.65;;;4.40;99.90;;;;;;20721894;28;20500;-39
2024/02/24 04:46:43;;;;;;;8.40;3.75;;;4.30;99.90;;;;;;20722363;28;20064;-39
2024/02/24 04:56:45;;;;;;;6.93;4.00;;;4.20;99.90;;;;;;20719040;28;20045;-39
2024/02/24 05:06:46;;;;;;;8.52;4.10;;;4.30;99.90;;;;;;20719863;28;20038;-39
2024/02/24 05:16:46;;;;;;;7.67;4.23;;;4.30;99.90;;;;;;20718985;28;20481;-39
2024/02/24 05:26:47;;;;;;;11.70;4.93;;;4.30;99.90;;;;;;20718813;28;20503;-39
2024/02/24 05:36:48;;;;;;;9.73;5.25;;;4.30;99.90;;;;;;20703403;28;20405;-39
2024/02/24 05:46:52;;;;;;;9.90;5.05;;;4.40;99.90;;;;;;20714344;28;20088;-39
2024/02/24 05:56:52;;;;;;;10.45;5.47;;;4.50;99.90;;;;;;20715220;28;20121;-39
2024/02/24 06:06:53;;;;;;;11.23;6.00;;;4.50;99.90;;;;;;20713518;28;20050;-39
2024/02/24 06:16:53;;;;;;;13.18;6.93;;;4.50;99.90;;;;;;20714557;28;20523;-39
2024/02/24 06:26:54;;;;;;;12.40;6.45;;;4.60;99.90;;;;;;20711616;28;20041;-39
2024/02/24 06:37:00;;;;;;;11.65;6.47;;;4.50;99.90;;;;;;20711018;28;20044;-39
2024/02/24 06:47:01;;;;;;;15.10;6.88;;;4.60;99.90;;;;;;20710326;28;20519;-39
2024/02/24 06:57:01;;;;;;;13.88;7.05;;;4.60;99.90;;;;;;20709930;28;20474;-39
2024/02/24 07:07:02;;;;;;;14.43;7.40;;;4.60;99.90;;;;;;20718898;28;20532;-40
2024/02/24 07:17:04;;;;;;;16.02;8.43;;;4.70;99.90;;;;;;20724524;28;20531;-40
2024/02/24 07:27:04;;;;;;;17.92;8.73;;;4.80;99.90;;;;;;20724102;28;20580;-40
2024/02/24 07:37:05;;;;;;;19.00;9.80;;;4.80;99.90;;;;;;20720657;28;20045;-39
2024/02/24 07:47:09;;;;;;;20.05;10.63;;;4.90;99.90;;;;;;20715646;28;20038;-40
2024/02/24 07:57:09;;;;;;;20.25;11.10;;;5.00;99.90;;;;;;20710492;28;20049;-40
2024/02/24 08:07:10;;;;;;;15.80;8.37;;;5.20;99.90;;;;;;20710009;28;20065;-39
2024/02/24 08:17:11;;;;;;;14.50;8.98;;;5.20;99.90;;;;;;20703224;28;20461;-39
2024/02/24 08:27:11;;;;;;;18.37;9.50;;;5.20;99.90;;;;;;20657571;28;20115;-40
2024/02/24 08:37:12;;;;;;;16.57;9.20;;;5.40;99.90;;;;;;20705407;28;20460;-40
2024/02/24 08:47:13;;;;;;;16.38;9.95;;;5.40;99.90;;;;;;20697163;28;20878;-40
2024/02/24 08:57:13;;;;;;;19.65;9.82;;;5.50;99.90;;;;;;20713384;28;20037;-40
2024/02/24 09:07:18;;;;;;;17.27;9.35;;;5.70;99.90;;;;;;20703142;28;20045;-40
2024/02/24 09:17:19;;;;;;;17.17;9.80;;;5.80;99.90;;;;;;20703968;28;20121;-40
2024/02/24 09:27:20;;;;;;;17.57;9.80;;;5.90;99.90;;;;;;20709630;28;20063;-40
2024/02/24 09:37:21;;;;;;;17.73;10.80;;;6.20;99.90;;;;;;20668517;28;20057;-40
2024/02/24 09:47:21;;;;;;;18.73;11.23;;;6.20;99.90;;;;;;20699233;28;20051;-40
2024/02/24 09:57:27;;;;;;;19.15;11.65;;;6.20;99.90;;;;;;20693858;28;21063;-40
2024/02/24 10:07:30;;;;;;;17.73;11.35;;;6.00;99.90;;;;;;20686927;28;20045;-41
2024/02/24 10:17:30;;;;;;;19.92;11.63;;;6.00;99.90;;;;;;20681662;28;20112;-40
2024/02/24 10:27:32;;;;;;;15.18;8.13;;;6.10;99.90;;;;;;20692259;28;20042;-40
2024/02/24 10:37:35;;;;;;;8.65;4.97;;;6.10;71.00;;;;;;20663889;28;20052;-40
2024/02/24 10:47:36;;;;;;;13.57;7.18;;;6.20;46.60;;;;;;20689353;28;20100;-41
2024/02/24 10:57:37;;;;;;;7.97;4.47;;;6.20;26.00;;;;;;20683904;28;20038;-40
2024/02/24 11:07:41;;;;;;;12.10;5.95;;;6.20;14.50;;;;;;20693159;28;20622;-40
2024/02/24 11:17:49;;;;;;;7.80;4.80;;;6.00;20.90;;;;;;20688161;28;20463;-40
2024/02/24 11:27:56;;;;;;;6.55;3.90;;;6.10;22.00;;;;;;20700952;28;20397;-40
2024/02/24 11:37:56;;;;;;;;;;;6.20;12.80;;;;;;20703738;28;20061;-40
2024/02/24 11:47:57;;;;;;;6.15;3.03;;;6.30;2.40;;;;;;20708172;28;19928;-40
2024/02/24 11:57:58;;;;;;;7.15;3.30;;;6.30;1.00;;;;;;20719279;28;20129;-40
2024/02/24 12:08:08;;;;;;;7.63;4.15;;;6.40;1.00;;;;;;20700096;28;20421;-40
2024/02/24 12:18:09;;;;;;;5.85;3.75;;;6.20;1.00;;;;;;20706279;28;20125;-40
2024/02/24 12:28:10;;;;;;;21.27;9.63;;;6.20;1.00;;;;;;20695923;28;20080;-40
2024/02/24 12:38:16;;;;;;;13.43;7.15;;;6.30;1.00;;;;;;20700711;28;20107;-40
2024/02/24 12:48:17;;;;;;;9.85;6.15;;;6.30;1.00;;;;;;20706929;28;20034;-40
2024/02/24 12:58:18;;;;;;;7.85;4.38;;;6.50;1.00;;;;;;20702276;28;20041;-40
2024/02/24 13:08:19;;;;;;;6.63;3.35;;;6.50;1.00;;;;;;20710006;28;20088;-40
2024/02/24 13:18:19;;;;;;;6.05;4.30;;;6.50;1.00;;;;;;20704695;28;20034;-41
2024/02/24 13:28:20;;;;;;;5.47;3.47;;;6.50;1.00;;;;;;20701490;28;20073;-40
2024/02/24 13:38:21;;;;;;;5.67;3.80;;;6.30;1.00;;;;;;20684782;28;20154;-40
2024/02/24 13:48:21;;;;;;;8.07;4.95;;;6.10;8.00;;;;;;20701457;28;20873;-40
2024/02/24 13:58:22;;;;;;;9.15;5.03;;;6.20;17.30;;;;;;20694155;28;20466;-40
2024/02/24 14:08:23;;;;;;;9.10;4.25;;;6.30;18.30;;;;;;20694795;28;20050;-40
2024/02/24 14:18:24;;;;;;;7.95;4.47;;;6.20;19.30;;;;;;20703042;28;20049;-40
2024/02/24 14:28:25;;;;;;;6.97;4.32;;;6.10;22.60;;;;;;20703016;28;20387;-39
2024/02/24 14:38:25;;;;;;;6.65;4.90;;;6.10;24.80;;;;;;20700949;28;20046;-40
2024/02/24 14:48:26;;;;;;;9.50;5.20;;;6.30;28.50;;;;;;20710845;28;20048;-40
2024/02/24 14:58:27;;;;;;;7.78;4.68;;;6.80;28.40;;;;;;20701434;28;20041;-39
2024/02/24 15:08:28;;;;;;;8.68;4.47;;;7.40;18.00;;;;;;20706926;28;20144;-40
2024/02/24 15:18:28;;;;;;;8.40;5.70;;;7.40;1.00;;;;;;20704230;28;20033;-40
2024/02/24 15:28:29;;;;;;;6.60;4.13;;;7.20;1.00;;;;;;20718811;28;20057;-39
2024/02/24 15:38:29;;;;;;;6.90;3.63;;;7.20;1.00;;;;;;20720893;28;20472;-40
2024/02/24 15:48:30;;;;;;;6.05;4.25;;;7.20;1.00;;;;;;20719468;28;20064;-40
2024/02/24 15:58:31;;;;;;;6.70;3.57;;;7.20;1.00;;;;;;20719367;28;20037;-40
2024/02/24 16:08:32;;;;;;;6.07;3.22;;;7.20;1.00;;;;;;20718681;28;20449;-40
2024/02/24 16:18:34;;;;;;;4.63;3.13;;;7.10;1.00;;;;;;20718462;28;20069;-40
2024/02/24 16:28:34;;;;;;;6.45;4.22;;;7.10;1.00;;;;;;20720624;28;20046;-40
2024/02/24 16:38:35;;;;;;;8.88;4.88;;;6.90;1.00;;;;;;20718858;28;20052;-40
2024/02/24 16:48:35;;;;;;;9.32;6.25;;;6.80;1.00;;;;;;20711253;28;20477;-40
2024/02/24 16:58:36;;;;;;;6.80;4.03;;;6.60;1.00;;;;;;20711856;28;20034;-40
2024/02/24 17:08:37;;;;;;;7.28;4.03;;;6.50;1.00;;;;;;20709604;28;20038;-40
2024/02/24 17:18:40;;;;;;;6.90;3.15;;;6.50;1.00;;;;;;20711428;28;20036;-39
2024/02/24 17:28:41;;;;;;;6.95;3.00;;;6.40;1.00;;;;;;20709232;28;20488;-40
2024/02/24 17:38:42;;;;;;;7.82;3.03;;;6.30;1.00;;;;;;20704889;28;20256;-40
2024/02/24 17:48:42;;;;;;;8.13;2.83;;;6.30;1.00;;;;;;20711433;28;20687;-39
2024/02/24 17:58:43;;;;;;;6.18;2.28;;;6.30;1.00;;;;;;20708908;28;20065;-39
2024/02/24 18:08:44;;;;;;;5.25;2.47;;;6.30;1.00;;;;;;20706458;28;20049;-40
2024/02/24 18:18:45;;;;;;;6.70;3.45;;;6.30;1.00;;;;;;20698271;28;20049;-40
2024/02/24 18:28:45;;;;;;;5.80;3.03;;;6.20;1.00;;;;;;20698675;28;20061;-40
2024/02/24 18:38:47;;;;;;;9.43;3.90;;;6.10;1.00;;;;;;20697071;28;20045;-40
2024/02/24 18:48:48;;;;;;;6.25;3.17;;;6.00;1.00;;;;;;20698247;28;20046;-40
2024/02/24 18:58:49;;;;;;;6.50;3.50;;;6.20;1.00;;;;;;20704417;28;20046;-39
2024/02/24 19:08:50;;;;;;;7.85;3.13;;;6.20;1.00;;;;;;20713075;28;20038;-41
2024/02/24 19:18:51;;;;;;;12.00;6.18;;;6.30;1.00;;;;;;20714326;28;20096;-40
2024/02/24 19:28:52;;;;;;;11.65;5.88;;;6.20;1.00;;;;;;20716981;28;20398;-40
2024/02/24 19:38:53;;;;;;;6.25;3.53;;;6.10;2.00;;;;;;20709552;28;20692;-40
2024/02/24 19:48:54;;;;;;;9.77;3.47;;;6.00;7.90;;;;;;20710788;28;20120;-40
2024/02/24 19:58:55;;;;;;;7.22;3.05;;;6.10;8.00;;;;;;20712664;28;20038;-41
2024/02/24 20:08:55;;;;;;;9.18;3.95;;;6.20;4.60;;;;;;20706459;28;20058;-41
2024/02/24 20:18:56;;;;;;;5.55;3.20;;;6.20;7.60;;;;;;20703433;28;20030;-40
2024/02/24 20:28:57;;;;;;;6.43;3.13;;;6.20;11.40;;;;;;20703815;28;20045;-40
2024/02/24 20:38:58;;;;;;;9.18;4.28;;;6.00;21.60;;;;;;20700331;28;20050;-40
2024/02/24 20:48:58;;;;;;;5.75;2.90;;;5.80;34.20;;;;;;20692104;28;20038;-41
2024/02/24 20:58:59;;;;;;;5.30;2.35;;;5.90;38.10;;;;;;20708904;28;20034;-41
2024/02/24 21:09:00;;;;;;;5.15;2.03;;;5.90;35.10;;;;;;20681452;28;20121;-40
2024/02/24 21:19:01;;;;;;;7.25;2.03;;;6.20;17.30;;;;;;20698926;28;20488;-41
2024/02/24 21:29:02;;;;;;;6.43;1.77;;;6.30;11.20;;;;;;20698830;28;20398;-41
2024/02/24 21:39:03;;;;;;;5.57;1.57;;;6.40;4.80;;;;;;20703233;28;20433;-40
2024/02/24 21:49:04;;;;;;;5.60;1.60;;;6.40;6.80;;;;;;20703775;28;20562;-40
2024/02/24 21:59:04;;;;;;;3.20;1.55;;;6.30;8.70;;;;;;20700974;28;20556;-40
2024/02/24 22:09:05;;;;;;;5.15;1.73;;;6.30;8.30;;;;;;20700468;28;20540;-42
2024/02/24 22:19:05;;;;;;;6.33;2.23;;;6.30;10.10;;;;;;20699781;28;20041;-41
2024/02/24 22:29:06;;;;;;;3.83;1.88;;;6.20;14.60;;;;;;20686664;28;20475;-41
2024/02/24 22:39:07;;;;;;;4.90;1.98;;;6.10;25.10;;;;;;20682534;28;20050;-41
2024/02/24 22:49:07;;;;;;;3.80;1.65;;;6.00;32.50;;;;;;20690998;28;20394;-40
2024/02/24 22:59:10;;;;;;;5.05;2.20;;;6.00;43.70;;;;;;20684243;28;20042;-40
2024/02/24 23:09:10;;;;;;;4.65;1.90;;;6.00;45.50;;;;;;20692327;28;20037;-44
2024/02/24 23:19:11;;;;;;;5.67;1.87;;;5.70;61.00;;;;;;20682764;28;20486;-40
2024/02/24 23:29:12;;;;;;;6.95;1.88;;;5.70;76.20;;;;;;20676623;28;20473;-42
2024/02/24 23:39:12;;;;;;;5.03;1.77;;;5.80;86.90;;;;;;20675795;28;20054;-42
2024/02/24 23:49:15;;;;;;;4.00;1.87;;;5.70;88.50;;;;;;20689317;28;20042;-40
2024/02/24 23:59:16;;;;;;;6.00;1.70;;;5.90;75.60;;;;;;20698495;28;20061;-41
